X  Tanca Dades meteorològiques de l'aviació METAR        ETNH Flugplatz Hohn Airport
Temperatura
3°C Temperatura
2°C Rosada
93% Humitat



Vent
3 MPH
6 KM/H
1 M/S
3 NUS



170°
S
Condicions actuals

Mostly Clear Majoritàriament clar
Pressió 1010 (hPa) - 29.82 (inHg)
Visibilitat 6 (milla) - 10 (km)
Aeroport
Codi aeroport ETNH

Ubicació: Flugplatz Hohn Airport
Distància: 40 (mi)

Metar:
METAR ETNH 150320Z 17003KT 9999 FEW150 03/02 Q1010 BLU+

Temps: 15-04-2024 05:20 CEST